sensor_id;sensor_type;location;lat;lon;timestamp;pressure;altitude;pressure_sealevel;temperature;humidity
58821;BME280;70670;52.476;13.334;2023-07-02T00:01:03;99781.44;;;16.83;89.62
58821;BME280;70670;52.476;13.334;2023-07-02T00:03:49;99772.47;;;16.72;89.94
58821;BME280;70670;52.476;13.334;2023-07-02T00:06:14;99784.56;;;16.78;90.09
58821;BME280;70670;52.476;13.334;2023-07-02T00:08:40;99771.50;;;16.64;91.04
58821;BME280;70670;52.476;13.334;2023-07-02T00:11:06;99785.03;;;16.64;92.19
58821;BME280;70670;52.476;13.334;2023-07-02T00:13:31;99770.56;;;16.55;92.79
58821;BME280;70670;52.476;13.334;2023-07-02T00:15:57;99793.25;;;16.62;93.49
58821;BME280;70670;52.476;13.334;2023-07-02T00:18:24;99783.19;;;16.55;93.72
58821;BME280;70670;52.476;13.334;2023-07-02T00:20:54;99787.88;;;16.53;94.33
58821;BME280;70670;52.476;13.334;2023-07-02T00:23:19;99791.59;;;16.52;94.07
58821;BME280;70670;52.476;13.334;2023-07-02T00:25:46;99750.28;;;16.32;93.58
58821;BME280;70670;52.476;13.334;2023-07-02T00:28:12;99779.94;;;16.51;94.02
58821;BME280;70670;52.476;13.334;2023-07-02T00:30:37;99734.50;;;16.17;94.22
58821;BME280;70670;52.476;13.334;2023-07-02T00:33:03;99775.25;;;16.43;94.43
58821;BME280;70670;52.476;13.334;2023-07-02T00:35:29;99791.59;;;16.52;94.10
58821;BME280;70670;52.476;13.334;2023-07-02T00:37:54;99792.00;;;16.47;93.61
58821;BME280;70670;52.476;13.334;2023-07-02T00:40:20;99790.59;;;16.43;93.23
58821;BME280;70670;52.476;13.334;2023-07-02T00:42:46;99784.50;;;16.41;93.24
58821;BME280;70670;52.476;13.334;2023-07-02T00:45:11;99793.72;;;16.48;93.11
58821;BME280;70670;52.476;13.334;2023-07-02T00:47:37;99801.97;;;16.46;93.10
58821;BME280;70670;52.476;13.334;2023-07-02T00:50:02;99737.09;;;16.09;93.06
58821;BME280;70670;52.476;13.334;2023-07-02T00:52:28;99802.13;;;16.45;92.89
58821;BME280;70670;52.476;13.334;2023-07-02T00:54:54;99802.28;;;16.43;92.78
58821;BME280;70670;52.476;13.334;2023-07-02T00:57:19;99796.59;;;16.37;92.58
58821;BME280;70670;52.476;13.334;2023-07-02T00:59:45;99800.13;;;16.37;92.28
58821;BME280;70670;52.476;13.334;2023-07-02T01:02:11;99733.66;;;16.07;91.93
58821;BME280;70670;52.476;13.334;2023-07-02T01:04:38;99779.97;;;16.32;92.27
58821;BME280;70670;52.476;13.334;2023-07-02T01:07:05;99785.06;;;16.35;91.83
58821;BME280;70670;52.476;13.334;2023-07-02T01:09:35;99791.03;;;16.38;91.58
58821;BME280;70670;52.476;13.334;2023-07-02T01:12:05;99735.38;;;15.98;91.72
58821;BME280;70670;52.476;13.334;2023-07-02T01:14:36;99779.13;;;16.21;91.17
58821;BME280;70670;52.476;13.334;2023-07-02T01:17:03;99815.50;;;16.37;91.04
58821;BME280;70670;52.476;13.334;2023-07-02T01:19:47;99812.06;;;16.35;91.02
58821;BME280;70670;52.476;13.334;2023-07-02T01:22:18;99798.16;;;16.30;90.94
58821;BME280;70670;52.476;13.334;2023-07-02T01:24:44;99809.38;;;16.35;90.68
58821;BME280;70670;52.476;13.334;2023-07-02T01:27:13;99805.25;;;16.31;90.46
58821;BME280;70670;52.476;13.334;2023-07-02T01:29:40;99820.31;;;16.33;90.70
58821;BME280;70670;52.476;13.334;2023-07-02T01:32:06;99800.69;;;16.31;90.96
58821;BME280;70670;52.476;13.334;2023-07-02T01:34:31;99732.81;;;15.87;90.99
58821;BME280;70670;52.476;13.334;2023-07-02T01:36:57;99811.25;;;16.25;91.56
58821;BME280;70670;52.476;13.334;2023-07-02T01:39:22;99811.78;;;16.18;91.16
58821;BME280;70670;52.476;13.334;2023-07-02T01:41:55;99815.91;;;16.22;90.72
58821;BME280;70670;52.476;13.334;2023-07-02T01:44:31;99813.22;;;16.22;90.40
58821;BME280;70670;52.476;13.334;2023-07-02T01:46:57;99818.19;;;16.17;90.22
58821;BME280;70670;52.476;13.334;2023-07-02T01:49:24;99820.03;;;16.17;90.27
58821;BME280;70670;52.476;13.334;2023-07-02T01:51:54;99808.97;;;16.10;89.51
58821;BME280;70670;52.476;13.334;2023-07-02T01:54:21;99827.56;;;16.13;89.93
58821;BME280;70670;52.476;13.334;2023-07-02T01:56:47;99819.47;;;16.13;89.74
58821;BME280;70670;52.476;13.334;2023-07-02T01:59:13;99820.59;;;16.11;89.84
58821;BME280;70670;52.476;13.334;2023-07-02T02:01:39;99821.44;;;16.11;89.73
58821;BME280;70670;52.476;13.334;2023-07-02T02:04:07;99802.00;;;15.98;89.29
58821;BME280;70670;52.476;13.334;2023-07-02T02:06:33;99807.81;;;15.93;89.22
58821;BME280;70670;52.476;13.334;2023-07-02T02:08:59;99707.66;;;15.38;89.13
58821;BME280;70670;52.476;13.334;2023-07-02T02:11:25;99809.81;;;16.01;89.10
58821;BME280;70670;52.476;13.334;2023-07-02T02:13:51;99817.63;;;16.04;89.30
58821;BME280;70670;52.476;13.334;2023-07-02T02:16:17;99817.75;;;16.03;89.22
58821;BME280;70670;52.476;13.334;2023-07-02T02:18:42;99808.25;;;15.89;89.70
58821;BME280;70670;52.476;13.334;2023-07-02T02:21:08;99789.22;;;15.81;89.83
58821;BME280;70670;52.476;13.334;2023-07-02T02:23:33;99828.28;;;15.96;89.77
58821;BME280;70670;52.476;13.334;2023-07-02T02:25:59;99838.34;;;15.94;89.88
58821;BME280;70670;52.476;13.334;2023-07-02T02:28:25;99819.75;;;15.91;89.76
58821;BME280;70670;52.476;13.334;2023-07-02T02:30:50;99768.84;;;15.57;89.48
58821;BME280;70670;52.476;13.334;2023-07-02T02:33:16;99836.78;;;15.91;89.30
58821;BME280;70670;52.476;13.334;2023-07-02T02:35:42;99765.56;;;15.44;89.41
58821;BME280;70670;52.476;13.334;2023-07-02T02:38:08;99839.63;;;15.90;89.24
58821;BME280;70670;52.476;13.334;2023-07-02T02:40:34;99833.81;;;15.85;89.35
58821;BME280;70670;52.476;13.334;2023-07-02T02:43:00;99837.34;;;15.85;89.15
58821;BME280;70670;52.476;13.334;2023-07-02T02:45:26;99835.09;;;15.81;89.17
58821;BME280;70670;52.476;13.334;2023-07-02T02:47:51;99836.78;;;15.82;89.33
58821;BME280;70670;52.476;13.334;2023-07-02T02:50:17;99834.34;;;15.79;89.04
58821;BME280;70670;52.476;13.334;2023-07-02T02:52:42;99833.50;;;15.78;89.47
58821;BME280;70670;52.476;13.334;2023-07-02T02:55:09;99847.84;;;15.79;89.27
58821;BME280;70670;52.476;13.334;2023-07-02T02:57:35;99851.53;;;15.78;89.26
58821;BME280;70670;52.476;13.334;2023-07-02T03:00:01;99862.34;;;15.78;89.19
58821;BME280;70670;52.476;13.334;2023-07-02T03:02:27;99849.13;;;15.74;89.25
58821;BME280;70670;52.476;13.334;2023-07-02T03:04:53;99858.91;;;15.76;89.27
58821;BME280;70670;52.476;13.334;2023-07-02T03:07:19;99793.50;;;15.43;89.12
58821;BME280;70670;52.476;13.334;2023-07-02T03:09:45;99855.50;;;15.73;89.02
58821;BME280;70670;52.476;13.334;2023-07-02T03:12:10;99825.34;;;15.59;89.09
58821;BME280;70670;52.476;13.334;2023-07-02T03:14:36;99853.50;;;15.76;89.01
58821;BME280;70670;52.476;13.334;2023-07-02T03:17:02;99840.91;;;15.76;88.82
58821;BME280;70670;52.476;13.334;2023-07-02T03:19:28;99866.31;;;15.73;88.58
58821;BME280;70670;52.476;13.334;2023-07-02T03:21:54;99857.47;;;15.71;88.56
58821;BME280;70670;52.476;13.334;2023-07-02T03:24:20;99851.22;;;15.71;88.18
58821;BME280;70670;52.476;13.334;2023-07-02T03:26:45;99822.16;;;15.44;87.95
58821;BME280;70670;52.476;13.334;2023-07-02T03:29:11;99839.81;;;15.58;88.14
58821;BME280;70670;52.476;13.334;2023-07-02T03:31:37;99804.88;;;15.37;87.82
58821;BME280;70670;52.476;13.334;2023-07-02T03:34:06;99848.97;;;15.66;87.74
58821;BME280;70670;52.476;13.334;2023-07-02T03:36:31;99777.28;;;15.23;87.53
58821;BME280;70670;52.476;13.334;2023-07-02T03:38:58;99850.94;;;15.64;86.94
58821;BME280;70670;52.476;13.334;2023-07-02T03:41:23;99852.88;;;15.62;86.58
58821;BME280;70670;52.476;13.334;2023-07-02T03:43:49;99856.31;;;15.64;86.42
58821;BME280;70670;52.476;13.334;2023-07-02T03:46:14;99859.47;;;15.69;86.20
58821;BME280;70670;52.476;13.334;2023-07-02T03:48:40;99804.56;;;15.40;86.07
58821;BME280;70670;52.476;13.334;2023-07-02T03:51:06;99840.53;;;15.60;86.13
58821;BME280;70670;52.476;13.334;2023-07-02T03:53:32;99849.09;;;15.65;85.73
58821;BME280;70670;52.476;13.334;2023-07-02T03:55:57;99863.44;;;15.65;85.20
58821;BME280;70670;52.476;13.334;2023-07-02T03:58:23;99802.00;;;15.29;84.63
58821;BME280;70670;52.476;13.334;2023-07-02T04:00:49;99866.84;;;15.67;84.88
58821;BME280;70670;52.476;13.334;2023-07-02T04:03:17;99864.88;;;15.69;85.05
58821;BME280;70670;52.476;13.334;2023-07-02T04:05:43;99865.88;;;15.68;84.48
58821;BME280;70670;52.476;13.334;2023-07-02T04:08:09;99821.31;;;15.34;84.34
58821;BME280;70670;52.476;13.334;2023-07-02T04:10:35;99797.69;;;15.16;84.50
58821;BME280;70670;52.476;13.334;2023-07-02T04:13:01;99888.56;;;15.66;83.95
58821;BME280;70670;52.476;13.334;2023-07-02T04:15:27;99806.34;;;15.20;83.93
58821;BME280;70670;52.476;13.334;2023-07-02T04:17:52;99893.81;;;15.67;83.95
58821;BME280;70670;52.476;13.334;2023-07-02T04:20:19;99898.94;;;15.70;83.89
58821;BME280;70670;52.476;13.334;2023-07-02T04:22:45;99888.69;;;15.64;83.66
58821;BME280;70670;52.476;13.334;2023-07-02T04:25:12;99885.44;;;15.70;83.67
58821;BME280;70670;52.476;13.334;2023-07-02T04:27:43;99875.31;;;15.63;82.83
58821;BME280;70670;52.476;13.334;2023-07-02T04:30:12;99877.25;;;15.72;83.50
58821;BME280;70670;52.476;13.334;2023-07-02T04:32:38;99880.78;;;15.72;83.03
58821;BME280;70670;52.476;13.334;2023-07-02T04:35:09;99867.84;;;15.66;83.23
58821;BME280;70670;52.476;13.334;2023-07-02T04:37:36;99892.16;;;15.76;82.81
58821;BME280;70670;52.476;13.334;2023-07-02T04:40:02;99887.47;;;15.78;82.50
58821;BME280;70670;52.476;13.334;2023-07-02T04:42:36;99905.94;;;15.83;82.38
58821;BME280;70670;52.476;13.334;2023-07-02T04:45:06;99891.75;;;15.81;82.10
58821;BME280;70670;52.476;13.334;2023-07-02T04:47:32;99917.03;;;15.89;81.88
58821;BME280;70670;52.476;13.334;2023-07-02T04:49:58;99852.59;;;15.56;81.74
58821;BME280;70670;52.476;13.334;2023-07-02T04:52:24;99917.19;;;15.88;82.02
58821;BME280;70670;52.476;13.334;2023-07-02T04:54:49;99870.53;;;15.66;82.09
58821;BME280;70670;52.476;13.334;2023-07-02T04:57:15;99850.31;;;15.51;81.65
58821;BME280;70670;52.476;13.334;2023-07-02T04:59:41;99820.75;;;15.40;81.60
58821;BME280;70670;52.476;13.334;2023-07-02T05:02:07;99914.34;;;15.99;81.77
58821;BME280;70670;52.476;13.334;2023-07-02T05:04:33;99917.19;;;16.07;81.85
58821;BME280;70670;52.476;13.334;2023-07-02T05:07:02;99919.50;;;16.12;80.90
58821;BME280;70670;52.476;13.334;2023-07-02T05:09:27;99914.38;;;16.18;81.06
58821;BME280;70670;52.476;13.334;2023-07-02T05:11:53;99918.81;;;16.19;80.71
58821;BME280;70670;52.476;13.334;2023-07-02T05:14:19;99913.25;;;16.21;80.63
58821;BME280;70670;52.476;13.334;2023-07-02T05:16:44;99917.22;;;16.27;79.94
58821;BME280;70670;52.476;13.334;2023-07-02T05:19:10;99919.66;;;16.30;80.05
58821;BME280;70670;52.476;13.334;2023-07-02T05:21:36;99928.59;;;16.30;79.06
58821;BME280;70670;52.476;13.334;2023-07-02T05:24:01;99894.22;;;16.13;79.58
58821;BME280;70670;52.476;13.334;2023-07-02T05:26:27;99857.81;;;15.88;79.44
58821;BME280;70670;52.476;13.334;2023-07-02T05:28:53;99935.16;;;16.37;79.48
58821;BME280;70670;52.476;13.334;2023-07-02T05:31:19;99863.22;;;16.07;78.16
58821;BME280;70670;52.476;13.334;2023-07-02T05:33:44;99912.13;;;16.43;78.11
58821;BME280;70670;52.476;13.334;2023-07-02T05:36:10;99912.56;;;16.48;78.01
58821;BME280;70670;52.476;13.334;2023-07-02T05:38:36;99907.75;;;16.52;77.75
58821;BME280;70670;52.476;13.334;2023-07-02T05:41:02;99936.56;;;16.70;77.03
58821;BME280;70670;52.476;13.334;2023-07-02T05:43:28;99930.31;;;16.70;77.06
58821;BME280;70670;52.476;13.334;2023-07-02T05:45:54;99942.69;;;16.63;76.43
58821;BME280;70670;52.476;13.334;2023-07-02T05:48:19;99874.88;;;16.17;76.92
58821;BME280;70670;52.476;13.334;2023-07-02T05:50:45;99885.69;;;16.17;77.20
58821;BME280;70670;52.476;13.334;2023-07-02T05:53:10;99884.00;;;16.16;76.64
58821;BME280;70670;52.476;13.334;2023-07-02T05:55:37;99942.13;;;16.50;76.17
58821;BME280;70670;52.476;13.334;2023-07-02T05:58:02;99880.56;;;16.14;76.11
58821;BME280;70670;52.476;13.334;2023-07-02T06:00:29;99952.78;;;16.61;75.94
58821;BME280;70670;52.476;13.334;2023-07-02T06:02:54;99955.47;;;16.70;74.99
58821;BME280;70670;52.476;13.334;2023-07-02T06:05:20;99959.81;;;16.83;74.84
58821;BME280;70670;52.476;13.334;2023-07-02T06:07:46;99941.44;;;16.77;74.17
58821;BME280;70670;52.476;13.334;2023-07-02T06:10:11;99942.59;;;16.84;73.39
58821;BME280;70670;52.476;13.334;2023-07-02T06:12:37;99938.00;;;16.94;73.29
58821;BME280;70670;52.476;13.334;2023-07-02T06:15:03;99939.84;;;17.03;72.03
58821;BME280;70670;52.476;13.334;2023-07-02T06:17:28;99926.91;;;17.07;70.31
58821;BME280;70670;52.476;13.334;2023-07-02T06:19:56;99876.59;;;16.67;69.88
58821;BME280;70670;52.476;13.334;2023-07-02T06:22:23;99939.69;;;17.05;70.97
58821;BME280;70670;52.476;13.334;2023-07-02T06:24:48;99885.72;;;16.76;70.81
58821;BME280;70670;52.476;13.334;2023-07-02T06:27:14;99931.19;;;17.00;70.88
58821;BME280;70670;52.476;13.334;2023-07-02T06:29:40;99946.69;;;17.07;70.33
58821;BME280;70670;52.476;13.334;2023-07-02T06:32:05;99877.13;;;16.70;70.95
58821;BME280;70670;52.476;13.334;2023-07-02T06:34:31;99936.56;;;17.09;70.85
58821;BME280;70670;52.476;13.334;2023-07-02T06:36:57;99927.88;;;17.06;70.63
58821;BME280;70670;52.476;13.334;2023-07-02T06:39:22;99894.78;;;16.75;71.72
58821;BME280;70670;52.476;13.334;2023-07-02T06:41:48;99942.44;;;16.85;71.65
58821;BME280;70670;52.476;13.334;2023-07-02T06:44:14;99936.16;;;16.94;70.63
58821;BME280;70670;52.476;13.334;2023-07-02T06:46:39;99935.56;;;17.10;69.93
58821;BME280;70670;52.476;13.334;2023-07-02T06:49:05;99943.22;;;17.25;70.03
58821;BME280;70670;52.476;13.334;2023-07-02T06:51:30;99930.81;;;17.32;70.01
58821;BME280;70670;52.476;13.334;2023-07-02T06:53:56;99890.59;;;17.19;69.52
58821;BME280;70670;52.476;13.334;2023-07-02T06:56:22;99939.38;;;17.64;67.66
58821;BME280;70670;52.476;13.334;2023-07-02T06:58:47;99947.19;;;17.67;66.83
58821;BME280;70670;52.476;13.334;2023-07-02T07:01:13;99938.03;;;17.51;66.22
58821;BME280;70670;52.476;13.334;2023-07-02T07:03:39;99936.75;;;17.45;66.34
58821;BME280;70670;52.476;13.334;2023-07-02T07:06:04;99947.53;;;17.55;67.55
58821;BME280;70670;52.476;13.334;2023-07-02T07:08:30;99951.50;;;17.60;66.59
58821;BME280;70670;52.476;13.334;2023-07-02T07:10:55;99929.81;;;17.33;66.18
58821;BME280;70670;52.476;13.334;2023-07-02T07:13:21;99946.16;;;17.41;66.24
58821;BME280;70670;52.476;13.334;2023-07-02T07:15:47;99950.16;;;17.37;66.39
58821;BME280;70670;52.476;13.334;2023-07-02T07:18:12;99954.16;;;17.33;65.66
58821;BME280;70670;52.476;13.334;2023-07-02T07:20:39;99948.63;;;17.25;65.13
58821;BME280;70670;52.476;13.334;2023-07-02T07:23:05;99939.22;;;17.29;65.53
58821;BME280;70670;52.476;13.334;2023-07-02T07:25:31;99963.22;;;17.51;65.58
58821;BME280;70670;52.476;13.334;2023-07-02T07:27:59;99954.03;;;17.72;65.15
58821;BME280;70670;52.476;13.334;2023-07-02T07:30:24;99931.66;;;17.69;64.15
58821;BME280;70670;52.476;13.334;2023-07-02T07:32:51;99942.94;;;17.75;64.16
58821;BME280;70670;52.476;13.334;2023-07-02T07:35:17;99878.63;;;17.49;63.95
58821;BME280;70670;52.476;13.334;2023-07-02T07:37:43;99923.78;;;17.86;64.17
58821;BME280;70670;52.476;13.334;2023-07-02T07:40:10;99965.28;;;18.04;63.53
58821;BME280;70670;52.476;13.334;2023-07-02T07:42:35;99974.88;;;17.99;63.93
58821;BME280;70670;52.476;13.334;2023-07-02T07:45:02;99968.50;;;17.90;63.28
58821;BME280;70670;52.476;13.334;2023-07-02T07:47:28;99917.69;;;17.37;63.89
58821;BME280;70670;52.476;13.334;2023-07-02T07:49:54;99980.25;;;17.61;64.47
58821;BME280;70670;52.476;13.334;2023-07-02T07:52:20;99895.00;;;17.10;65.06
58821;BME280;70670;52.476;13.334;2023-07-02T07:54:46;99967.22;;;17.37;65.53
58821;BME280;70670;52.476;13.334;2023-07-02T07:57:12;99974.31;;;17.48;65.80
58821;BME280;70670;52.476;13.334;2023-07-02T07:59:37;99967.22;;;17.37;66.15
58821;BME280;70670;52.476;13.334;2023-07-02T08:02:03;99975.50;;;17.36;66.77
58821;BME280;70670;52.476;13.334;2023-07-02T08:04:29;99986.88;;;17.30;66.72
58821;BME280;70670;52.476;13.334;2023-07-02T08:06:54;99992.00;;;17.33;67.22
58821;BME280;70670;52.476;13.334;2023-07-02T08:09:20;99987.22;;;17.27;67.07
58821;BME280;70670;52.476;13.334;2023-07-02T08:11:46;100019.94;;;17.24;67.07
58821;BME280;70670;52.476;13.334;2023-07-02T08:14:12;99989.63;;;17.20;67.53
58821;BME280;70670;52.476;13.334;2023-07-02T08:16:38;99992.19;;;17.21;67.33
58821;BME280;70670;52.476;13.334;2023-07-02T08:19:04;99975.94;;;17.21;67.63
58821;BME280;70670;52.476;13.334;2023-07-02T08:21:30;99973.13;;;17.13;67.37
58821;BME280;70670;52.476;13.334;2023-07-02T08:23:56;99986.38;;;17.07;66.93
58821;BME280;70670;52.476;13.334;2023-07-02T08:26:23;99977.53;;;17.05;67.16
58821;BME280;70670;52.476;13.334;2023-07-02T08:28:48;99976.13;;;17.01;66.50
58821;BME280;70670;52.476;13.334;2023-07-02T08:31:14;99999.19;;;17.05;66.56
58821;BME280;70670;52.476;13.334;2023-07-02T08:33:40;99998.88;;;16.98;66.46
58821;BME280;70670;52.476;13.334;2023-07-02T08:36:06;99986.09;;;17.00;65.84
58821;BME280;70670;52.476;13.334;2023-07-02T08:38:31;99990.06;;;17.06;65.05
58821;BME280;70670;52.476;13.334;2023-07-02T08:40:57;99966.59;;;16.96;64.22
58821;BME280;70670;52.476;13.334;2023-07-02T08:43:25;99952.09;;;16.78;63.76
58821;BME280;70670;52.476;13.334;2023-07-02T08:45:51;99998.31;;;17.04;62.71
58821;BME280;70670;52.476;13.334;2023-07-02T08:48:17;99999.47;;;17.02;62.23
58821;BME280;70670;52.476;13.334;2023-07-02T08:50:48;99989.22;;;17.05;62.70
58821;BME280;70670;52.476;13.334;2023-07-02T08:53:14;99992.63;;;17.07;60.66
58821;BME280;70670;52.476;13.334;2023-07-02T08:55:40;99979.56;;;17.03;59.08
58821;BME280;70670;52.476;13.334;2023-07-02T08:58:06;100003.31;;;17.18;59.61
58821;BME280;70670;52.476;13.334;2023-07-02T09:00:31;99996.16;;;17.17;59.22
58821;BME280;70670;52.476;13.334;2023-07-02T09:03:17;100001.00;;;17.24;59.07
58821;BME280;70670;52.476;13.334;2023-07-02T09:05:51;100003.31;;;17.18;58.56
58821;BME280;70670;52.476;13.334;2023-07-02T09:08:24;99996.88;;;17.19;59.18
58821;BME280;70670;52.476;13.334;2023-07-02T09:10:50;100022.34;;;17.17;59.36
58821;BME280;70670;52.476;13.334;2023-07-02T09:13:16;100031.03;;;17.20;59.51
58821;BME280;70670;52.476;13.334;2023-07-02T09:15:42;100001.44;;;17.19;59.36
58821;BME280;70670;52.476;13.334;2023-07-02T09:18:20;99958.66;;;16.95;58.88
58821;BME280;70670;52.476;13.334;2023-07-02T09:20:46;100022.03;;;17.30;58.71
58821;BME280;70670;52.476;13.334;2023-07-02T09:23:12;100017.09;;;17.35;58.90
58821;BME280;70670;52.476;13.334;2023-07-02T09:25:38;100023.06;;;17.38;59.25
58821;BME280;70670;52.476;13.334;2023-07-02T09:28:15;100019.06;;;17.42;58.85
58821;BME280;70670;52.476;13.334;2023-07-02T09:30:55;100019.63;;;17.36;58.37
58821;BME280;70670;52.476;13.334;2023-07-02T09:33:23;100010.53;;;17.28;58.91
58821;BME280;70670;52.476;13.334;2023-07-02T09:35:49;100018.50;;;17.39;58.96
58821;BME280;70670;52.476;13.334;2023-07-02T09:38:16;100030.84;;;17.41;59.37
58821;BME280;70670;52.476;13.334;2023-07-02T09:40:45;100037.88;;;17.34;59.14
58821;BME280;70670;52.476;13.334;2023-07-02T09:43:12;100027.63;;;17.28;59.77
58821;BME280;70670;52.476;13.334;2023-07-02T09:45:42;100026.75;;;17.28;60.76
58821;BME280;70670;52.476;13.334;2023-07-02T09:48:08;99984.81;;;17.04;59.49
58821;BME280;70670;52.476;13.334;2023-07-02T09:50:34;100030.41;;;17.56;60.04
58821;BME280;70670;52.476;13.334;2023-07-02T09:53:03;99990.84;;;17.55;59.10
58821;BME280;70670;52.476;13.334;2023-07-02T09:55:29;100011.41;;;17.85;59.46
58821;BME280;70670;52.476;13.334;2023-07-02T09:57:54;100013.47;;;18.01;57.92
58821;BME280;70670;52.476;13.334;2023-07-02T10:00:20;100000.28;;;18.15;56.54
58821;BME280;70670;52.476;13.334;2023-07-02T10:02:49;100026.59;;;18.51;55.04
58821;BME280;70670;52.476;13.334;2023-07-02T10:05:31;100021.34;;;18.49;55.12
58821;BME280;70670;52.476;13.334;2023-07-02T10:07:58;99977.03;;;17.95;55.91
58821;BME280;70670;52.476;13.334;2023-07-02T10:10:30;99973.69;;;18.01;56.94
58821;BME280;70670;52.476;13.334;2023-07-02T10:12:57;100007.88;;;18.57;56.96
58821;BME280;70670;52.476;13.334;2023-07-02T10:15:29;100013.19;;;18.95;56.03
58821;BME280;70670;52.476;13.334;2023-07-02T10:17:57;100022.09;;;18.87;55.49
58821;BME280;70670;52.476;13.334;2023-07-02T10:20:39;99997.56;;;18.61;55.90
58821;BME280;70670;52.476;13.334;2023-07-02T10:23:06;100005.75;;;18.79;56.32
58821;BME280;70670;52.476;13.334;2023-07-02T10:25:36;100007.06;;;18.75;56.17
58821;BME280;70670;52.476;13.334;2023-07-02T10:28:16;100015.50;;;18.72;56.38
58821;BME280;70670;52.476;13.334;2023-07-02T10:30:42;100000.50;;;18.77;56.72
58821;BME280;70670;52.476;13.334;2023-07-02T10:33:15;100006.66;;;19.05;56.18
58821;BME280;70670;52.476;13.334;2023-07-02T10:35:43;100002.03;;;19.24;55.98
58821;BME280;70670;52.476;13.334;2023-07-02T10:38:19;99995.03;;;19.39;54.69
58821;BME280;70670;52.476;13.334;2023-07-02T10:40:56;100012.03;;;19.41;55.27
58821;BME280;70670;52.476;13.334;2023-07-02T10:43:29;99997.72;;;19.57;53.44
58821;BME280;70670;52.476;13.334;2023-07-02T10:45:56;100004.97;;;19.48;53.93
58821;BME280;70670;52.476;13.334;2023-07-02T10:48:21;99993.28;;;19.30;54.99
58821;BME280;70670;52.476;13.334;2023-07-02T10:50:47;100002.03;;;19.41;54.89
58821;BME280;70670;52.476;13.334;2023-07-02T10:53:16;99991.53;;;19.47;54.33
58821;BME280;70670;52.476;13.334;2023-07-02T10:55:43;99989.72;;;19.55;53.77
58821;BME280;70670;52.476;13.334;2023-07-02T10:58:09;99994.88;;;19.93;51.94
58821;BME280;70670;52.476;13.334;2023-07-02T11:00:45;99931.16;;;19.79;51.09
58821;BME280;70670;52.476;13.334;2023-07-02T11:03:21;99982.78;;;20.29;49.56
58821;BME280;70670;52.476;13.334;2023-07-02T11:05:48;99995.59;;;20.45;48.61
58821;BME280;70670;52.476;13.334;2023-07-02T11:08:14;100002.00;;;20.28;48.34
58821;BME280;70670;52.476;13.334;2023-07-02T11:10:40;100010.16;;;20.28;48.00
58821;BME280;70670;52.476;13.334;2023-07-02T11:13:21;100001.34;;;20.42;47.66
58821;BME280;70670;52.476;13.334;2023-07-02T11:15:47;99946.41;;;20.14;48.72
58821;BME280;70670;52.476;13.334;2023-07-02T11:18:14;100014.00;;;20.59;49.43
58821;BME280;70670;52.476;13.334;2023-07-02T11:20:41;100001.34;;;20.42;50.01
58821;BME280;70670;52.476;13.334;2023-07-02T11:23:21;99990.44;;;20.34;50.61
58821;BME280;70670;52.476;13.334;2023-07-02T11:25:57;99981.44;;;19.91;50.28
58821;BME280;70670;52.476;13.334;2023-07-02T11:28:23;99973.25;;;19.49;51.31
58821;BME280;70670;52.476;13.334;2023-07-02T11:30:48;100031.53;;;19.62;51.81
58821;BME280;70670;52.476;13.334;2023-07-02T11:33:14;100008.41;;;19.32;50.82
58821;BME280;70670;52.476;13.334;2023-07-02T11:35:40;100028.03;;;19.26;49.80
58821;BME280;70670;52.476;13.334;2023-07-02T11:38:06;99996.69;;;19.32;49.49
58821;BME280;70670;52.476;13.334;2023-07-02T11:40:32;100032.38;;;19.89;48.66
58821;BME280;70670;52.476;13.334;2023-07-02T11:42:57;99976.75;;;19.67;46.24
58821;BME280;70670;52.476;13.334;2023-07-02T11:45:23;100029.94;;;20.12;45.00
58821;BME280;70670;52.476;13.334;2023-07-02T11:47:49;100029.59;;;20.15;45.70
58821;BME280;70670;52.476;13.334;2023-07-02T11:50:14;100051.19;;;20.17;45.48
58821;BME280;70670;52.476;13.334;2023-07-02T11:52:40;100032.66;;;19.78;44.13
58821;BME280;70670;52.476;13.334;2023-07-02T11:55:06;100035.75;;;19.91;43.87
58821;BME280;70670;52.476;13.334;2023-07-02T11:57:31;99998.50;;;19.23;43.78
58821;BME280;70670;52.476;13.334;2023-07-02T11:59:57;99997.06;;;19.37;43.48
58821;BME280;70670;52.476;13.334;2023-07-02T12:02:23;100034.38;;;19.87;42.86
58821;BME280;70670;52.476;13.334;2023-07-02T12:04:49;100048.50;;;20.25;43.27
58821;BME280;70670;52.476;13.334;2023-07-02T12:07:15;100043.19;;;20.49;43.05
58821;BME280;70670;52.476;13.334;2023-07-02T12:09:41;99968.00;;;20.16;43.14
58821;BME280;70670;52.476;13.334;2023-07-02T12:12:07;100012.22;;;20.42;42.65
58821;BME280;70670;52.476;13.334;2023-07-02T12:14:33;100038.13;;;20.71;42.87
58821;BME280;70670;52.476;13.334;2023-07-02T12:16:58;100022.72;;;20.96;41.61
58821;BME280;70670;52.476;13.334;2023-07-02T12:19:24;100040.41;;;21.00;41.18
58821;BME280;70670;52.476;13.334;2023-07-02T12:21:49;100016.78;;;21.08;40.61
58821;BME280;70670;52.476;13.334;2023-07-02T12:24:15;100040.59;;;21.15;40.90
58821;BME280;70670;52.476;13.334;2023-07-02T12:26:42;100070.41;;;20.66;40.93
58821;BME280;70670;52.476;13.334;2023-07-02T12:29:08;100054.81;;;20.76;41.43
58821;BME280;70670;52.476;13.334;2023-07-02T12:31:33;100051.44;;;20.98;41.19
58821;BME280;70670;52.476;13.334;2023-07-02T12:33:59;100060.94;;;20.86;41.64
58821;BME280;70670;52.476;13.334;2023-07-02T12:36:25;100045.34;;;20.96;41.16
58821;BME280;70670;52.476;13.334;2023-07-02T12:38:50;99999.66;;;20.41;40.36
58821;BME280;70670;52.476;13.334;2023-07-02T12:41:16;100061.94;;;20.69;41.06
58821;BME280;70670;52.476;13.334;2023-07-02T12:43:42;100048.06;;;20.96;41.10
58821;BME280;70670;52.476;13.334;2023-07-02T12:46:07;100064.56;;;21.03;38.43